createdAt,value
2018-10-05T00:00:39.653Z,91.24
2018-10-05T00:01:39.626Z,91.14
2018-10-05T00:02:39.496Z,90.10
2018-10-05T00:03:39.434Z,90.53
2018-10-05T00:05:00.316Z,90.81
2018-10-05T00:05:39.345Z,92.61
2018-10-05T00:06:39.167Z,93.84
2018-10-05T00:07:39.154Z,94.60
2018-10-05T00:08:39.010Z,95.65
2018-10-05T00:09:38.961Z,97.12
2018-10-05T00:10:59.823Z,96.03
2018-10-05T00:11:38.875Z,95.26
2018-10-05T00:12:38.716Z,95.88
2018-10-05T00:13:38.689Z,96.22
2018-10-05T00:14:38.525Z,97.26
2018-10-05T00:15:38.487Z,97.26
2018-10-05T00:16:59.342Z,97.64
2018-10-05T00:17:38.400Z,97.54
2018-10-05T00:18:38.199Z,96.73
2018-10-05T00:19:38.208Z,97.35
2018-10-05T00:20:38.099Z,96.97
2018-10-05T00:21:38.015Z,97.54
2018-10-05T00:22:58.858Z,98.63
2018-10-05T00:23:37.826Z,98.25
2018-10-05T00:24:37.718Z,98.25
2018-10-05T00:25:37.733Z,97.40
2018-10-05T00:26:37.555Z,96.12
2018-10-05T00:27:37.542Z,95.07
2018-10-05T00:28:58.375Z,93.70
2018-10-05T00:29:37.350Z,92.52
2018-10-05T00:30:37.231Z,91.00
2018-10-05T00:31:37.263Z,90.15
2018-10-05T00:32:37.070Z,88.82
2018-10-05T00:33:37.070Z,89.20
2018-10-05T00:34:57.889Z,90.43
2018-10-05T00:35:36.880Z,91.38
2018-10-05T00:36:36.744Z,92.52
2018-10-05T00:37:36.687Z,93.08
2018-10-05T00:38:36.583Z,92.90
2018-10-05T00:39:36.602Z,92.61
2018-10-05T00:40:57.406Z,92.23
2018-10-05T00:41:36.411Z,92.71
2018-10-05T00:42:36.262Z,93.08
2018-10-05T00:43:36.218Z,92.99
2018-10-05T00:44:36.097Z,92.61
2018-10-05T00:45:36.128Z,92.90
2018-10-05T00:46:56.920Z,93.84
2018-10-05T00:47:35.935Z,94.70
2018-10-05T00:48:35.772Z,95.07
2018-10-05T00:49:35.743Z,96.22
2018-10-05T00:50:35.616Z,96.50
2018-10-05T00:51:35.553Z,97.07
2018-10-05T00:52:56.477Z,94.89
2018-10-05T00:53:35.551Z,93.37
2018-10-05T00:54:35.289Z,93.65
2018-10-05T00:55:35.274Z,94.51
2018-10-05T00:56:35.127Z,94.70
2018-10-05T00:57:35.081Z,94.23
2018-10-05T00:58:55.953Z,93.75
2018-10-05T00:59:34.993Z,92.14
2018-10-05T01:00:34.800Z,89.67
2018-10-05T01:01:34.852Z,89.11
2018-10-05T01:02:34.638Z,88.16
2018-10-05T01:03:34.614Z,88.44
2018-10-05T01:04:55.457Z,88.92
2018-10-05T01:05:34.419Z,89.48
2018-10-05T01:06:34.315Z,90.34
2018-10-05T01:07:34.326Z,90.53
2018-10-05T01:08:34.150Z,90.53
2018-10-05T01:09:34.136Z,92.90
2018-10-05T01:10:54.965Z,94.60
2018-10-05T01:11:33.997Z,95.45
2018-10-05T01:12:33.828Z,94.98
2018-10-05T01:13:33.860Z,93.75
2018-10-05T01:14:33.666Z,92.14
2018-10-05T01:15:33.664Z,92.14
2018-10-05T01:16:54.481Z,92.99
2018-10-05T01:17:33.434Z,94.23
2018-10-05T01:18:33.338Z,95.07
2018-10-05T01:19:33.287Z,95.36
2018-10-05T01:20:33.178Z,93.94
2018-10-05T01:21:33.198Z,93.56
2018-10-05T01:22:53.994Z,92.90
2018-10-05T01:23:33.000Z,91.85
2018-10-05T01:24:32.861Z,91.38
2018-10-05T01:25:32.810Z,91.28
2018-10-05T01:26:32.701Z,92.33
2018-10-05T01:27:32.722Z,93.08
2018-10-05T01:28:53.509Z,93.94
2018-10-05T01:29:32.452Z,95.17
2018-10-05T01:30:32.370Z,96.88
2018-10-05T01:31:32.343Z,96.88
2018-10-05T01:32:32.203Z,97.26
2018-10-05T01:33:32.145Z,97.45
2018-10-05T01:34:53.020Z,97.45
2018-10-05T01:35:32.056Z,97.64
2018-10-05T01:36:31.876Z,96.31
2018-10-05T01:37:31.871Z,94.89
2018-10-05T01:38:31.716Z,94.70
2018-10-05T01:39:31.672Z,93.37
2018-10-05T01:40:52.533Z,93.84
2018-10-05T01:41:31.583Z,93.94
2018-10-05T01:42:31.391Z,94.70
2018-10-05T01:43:31.399Z,95.36
2018-10-05T01:44:31.231Z,94.70
2018-10-05T01:45:31.202Z,92.23
2018-10-05T01:46:52.054Z,90.05
2018-10-05T01:47:31.012Z,89.20
2018-10-05T01:48:31.698Z,89.01
2018-10-05T01:49:30.922Z,89.25
2018-10-05T01:50:30.742Z,89.44
2018-10-05T01:51:30.730Z,89.91
2018-10-05T01:52:51.559Z,89.63
2018-10-05T01:53:30.537Z,90.29
2018-10-05T01:54:30.424Z,92.00
2018-10-05T01:55:30.450Z,92.09
2018-10-05T01:56:30.254Z,91.62
2018-10-05T01:57:30.256Z,91.05
2018-10-05T01:58:51.068Z,89.72
2018-10-05T01:59:30.073Z,90.01
2018-10-05T02:00:29.931Z,90.95
2018-10-05T02:01:29.877Z,92.09
2018-10-05T02:02:29.770Z,92.09
2018-10-05T02:03:29.784Z,93.23
2018-10-05T02:04:50.584Z,93.51
2018-10-05T02:05:29.602Z,93.99
2018-10-05T02:06:29.441Z,94.65
2018-10-05T02:07:29.401Z,94.46
2018-10-05T02:08:29.276Z,94.84
2018-10-05T02:09:29.212Z,95.12
2018-10-05T02:10:50.095Z,96.36
2018-10-05T02:11:33.834Z,96.17
2018-10-05T02:12:28.950Z,95.79
2018-10-05T02:13:28.932Z,95.22
2018-10-05T02:14:28.793Z,95.60
2018-10-05T02:15:28.740Z,96.45
2018-10-05T02:16:49.611Z,97.11
2018-10-05T02:17:28.553Z,97.59
2018-10-05T02:18:28.462Z,97.21
2018-10-05T02:19:33.271Z,96.64
2018-10-05T02:20:28.303Z,97.49
2018-10-05T02:21:28.271Z,97.49
2018-10-05T02:22:49.121Z,97.49
2018-10-05T02:23:28.076Z,96.36
2018-10-05T02:24:27.976Z,94.08
2018-10-05T02:25:27.990Z,92.28
2018-10-05T02:26:27.813Z,92.19
2018-10-05T02:27:27.847Z,92.09
2018-10-05T02:28:48.631Z,92.66
2018-10-05T02:29:27.606Z,93.89
2018-10-05T02:30:27.500Z,95.79
2018-10-05T02:31:27.520Z,95.88
2018-10-05T02:32:27.327Z,93.99
2018-10-05T02:33:27.333Z,90.86
2018-10-05T02:34:48.141Z,88.87
2018-10-05T02:35:27.151Z,88.96
2018-10-05T02:36:26.999Z,89.44
2018-10-05T02:37:26.938Z,91.14
2018-10-05T02:38:26.839Z,91.62
2018-10-05T02:39:26.851Z,92.38
2018-10-05T02:40:47.651Z,92.57
2018-10-05T02:41:26.664Z,93.23
2018-10-05T02:42:26.515Z,93.70
2018-10-05T02:43:26.474Z,94.93
2018-10-05T02:44:26.345Z,96.07
2018-10-05T02:45:26.380Z,95.88
2018-10-05T02:46:47.162Z,96.36
2018-10-05T02:47:26.189Z,95.88
2018-10-05T02:48:26.024Z,96.64
2018-10-05T02:49:25.997Z,96.64
2018-10-05T02:50:25.860Z,97.30
2018-10-05T02:51:25.802Z,98.35
2018-10-05T02:52:46.674Z,98.72
2018-10-05T02:53:25.714Z,98.06
2018-10-05T02:54:25.528Z,97.49
2018-10-05T02:55:25.537Z,96.45
2018-10-05T02:56:25.368Z,94.74
2018-10-05T02:57:25.337Z,92.47
2018-10-05T02:58:46.186Z,91.62
2018-10-05T02:59:25.141Z,90.95
2018-10-05T03:00:25.044Z,90.39
2018-10-05T03:01:25.053Z,92.09
2018-10-05T03:02:24.878Z,93.32
2018-10-05T03:03:24.860Z,93.56
2018-10-05T03:04:45.694Z,93.84
2018-10-05T03:05:24.670Z,94.56
2018-10-05T03:06:24.551Z,95.22
2018-10-05T03:07:24.580Z,96.92
2018-10-05T03:08:24.390Z,97.21
2018-10-05T03:09:24.387Z,97.02
2018-10-05T03:10:45.202Z,96.73
2018-10-05T03:11:24.196Z,95.79
2018-10-05T03:12:24.064Z,94.93
2018-10-05T03:13:24.007Z,92.85
2018-10-05T03:14:23.898Z,91.52
2018-10-05T03:15:23.918Z,92.28
2018-10-05T03:16:44.717Z,92.66
2018-10-05T03:17:23.729Z,93.32
2018-10-05T03:18:23.575Z,94.46
2018-10-05T03:19:23.535Z,94.46
2018-10-05T03:20:23.413Z,92.66
2018-10-05T03:21:23.341Z,92.09
2018-10-05T03:22:44.225Z,90.95
2018-10-05T03:23:23.253Z,90.67
2018-10-05T03:24:23.085Z,91.38
2018-10-05T03:25:23.065Z,91.71
2018-10-05T03:26:22.923Z,91.57
2018-10-05T03:27:22.869Z,91.76
2018-10-05T03:28:43.734Z,92.76
2018-10-05T03:29:22.782Z,93.70
2018-10-05T03:30:22.594Z,93.70
2018-10-05T03:31:22.590Z,93.70
2018-10-05T03:32:22.428Z,92.09
2018-10-05T03:33:22.398Z,92.76
2018-10-05T03:34:43.241Z,92.09
2018-10-05T03:35:22.214Z,91.95
2018-10-05T03:36:22.113Z,92.52
2018-10-05T03:37:22.116Z,93.56
2018-10-05T03:38:21.938Z,94.98
2018-10-05T03:39:21.927Z,95.36
2018-10-05T03:40:42.752Z,96.36
2018-10-05T03:41:21.733Z,97.02
2018-10-05T03:42:21.608Z,97.59
2018-10-05T03:43:21.643Z,98.06
2018-10-05T03:44:21.444Z,98.06
2018-10-05T03:45:21.453Z,96.40
2018-10-05T03:46:42.265Z,93.75
2018-10-05T03:47:21.262Z,92.33
2018-10-05T03:48:21.118Z,91.76
2018-10-05T03:49:21.066Z,91.00
2018-10-05T03:50:20.956Z,90.63
2018-10-05T03:51:20.880Z,91.29
2018-10-05T03:52:41.770Z,92.43
2018-10-05T03:53:20.792Z,92.05
2018-10-05T03:54:20.631Z,92.52
2018-10-05T03:55:20.597Z,92.52
2018-10-05T03:56:20.468Z,92.90
2018-10-05T03:57:20.410Z,92.90
2018-10-05T03:58:41.280Z,93.27
2018-10-05T03:59:20.231Z,94.70
2018-10-05T04:00:20.139Z,94.60
2018-10-05T04:01:20.066Z,95.64
2018-10-05T04:02:19.976Z,96.78
2018-10-05T04:03:19.901Z,97.16
2018-10-05T04:04:40.792Z,98.01
2018-10-05T04:05:19.741Z,98.68
2018-10-05T04:06:19.646Z,98.68
2018-10-05T04:07:19.655Z,98.30
2018-10-05T04:08:19.483Z,98.11
2018-10-05T04:09:19.468Z,98.11
2018-10-05T04:10:40.297Z,96.78
2018-10-05T04:11:19.275Z,96.21
2018-10-05T04:12:19.158Z,95.64
2018-10-05T04:13:19.181Z,94.60
2018-10-05T04:14:18.988Z,93.75
2018-10-05T04:15:18.990Z,93.84
2018-10-05T04:16:39.809Z,94.42
2018-10-05T04:17:18.803Z,94.70
2018-10-05T04:18:18.662Z,95.64
2018-10-05T04:19:18.611Z,95.83
2018-10-05T04:20:18.497Z,96.69
2018-10-05T04:21:18.423Z,95.55
2018-10-05T04:22:39.312Z,93.56
2018-10-05T04:23:18.262Z,92.80
2018-10-05T04:24:18.176Z,91.57
2018-10-05T04:25:18.109Z,91.29
2018-10-05T04:26:18.011Z,91.29
2018-10-05T04:27:18.023Z,92.90
2018-10-05T04:28:38.826Z,93.56
2018-10-05T04:29:17.854Z,94.79
2018-10-05T04:30:17.679Z,94.60
2018-10-05T04:31:17.667Z,95.07
2018-10-05T04:32:17.516Z,95.07
2018-10-05T04:33:17.474Z,94.98
2018-10-05T04:34:38.328Z,94.98
2018-10-05T04:35:17.386Z,95.45
2018-10-05T04:36:17.187Z,96.02
2018-10-05T04:37:17.191Z,96.69
2018-10-05T04:38:17.023Z,97.16
2018-10-05T04:39:17.000Z,98.01
2018-10-05T04:40:37.839Z,98.11
2018-10-05T04:41:16.876Z,98.01
2018-10-05T04:42:16.697Z,95.55
2018-10-05T04:43:16.722Z,94.51
2018-10-05T04:44:16.531Z,94.51
2018-10-05T04:45:16.531Z,94.51
2018-10-05T04:46:37.347Z,93.65
2018-10-05T04:47:16.343Z,93.46
2018-10-05T04:48:16.203Z,94.42
2018-10-05T04:49:16.145Z,94.98
2018-10-05T04:50:16.040Z,95.45
2018-10-05T04:51:15.963Z,95.83
2018-10-05T04:52:36.856Z,97.25
2018-10-05T04:53:15.815Z,98.39
2018-10-05T04:54:15.710Z,99.15
2018-10-05T04:55:15.635Z,98.49
2018-10-05T04:56:15.546Z,97.35
2018-10-05T04:57:15.475Z,97.06
2018-10-05T04:58:36.369Z,97.73
2018-10-05T04:59:15.310Z,98.49
2018-10-05T05:00:15.218Z,98.30
2018-10-05T05:01:15.145Z,98.49
2018-10-05T05:02:15.053Z,98.77
2018-10-05T05:03:14.983Z,98.68
2018-10-05T05:04:35.873Z,97.25
2018-10-05T05:05:14.819Z,95.74
2018-10-05T05:06:14.733Z,93.56
2018-10-05T05:07:14.652Z,92.61
2018-10-05T05:08:14.563Z,92.29
2018-10-05T05:09:14.492Z,92.66
2018-10-05T05:10:35.378Z,92.90
2018-10-05T05:11:14.325Z,93.61
2018-10-05T05:12:14.341Z,94.89
2018-10-05T05:13:14.161Z,94.93
2018-10-05T05:14:14.074Z,95.74
2018-10-05T05:15:13.996Z,96.50
2018-10-05T05:16:34.884Z,96.54
2018-10-05T05:17:13.837Z,97.25
2018-10-05T05:18:13.750Z,97.54
2018-10-05T05:19:13.659Z,97.73
2018-10-05T05:20:13.589Z,98.68
2018-10-05T05:21:13.500Z,98.06
2018-10-05T05:22:34.409Z,97.92
2018-10-05T05:23:13.333Z,98.63
2018-10-05T05:24:13.257Z,98.63
2018-10-05T05:25:13.169Z,99.01
2018-10-05T05:26:13.092Z,99.05
2018-10-05T05:27:13.019Z,99.66
2018-10-05T05:28:33.910Z,99.52
2018-10-05T05:29:12.840Z,99.85
2018-10-05T05:30:12.761Z,99.99
2018-10-05T05:31:12.674Z,99.99
2018-10-05T05:32:12.603Z,99.99
2018-10-05T05:33:12.510Z,99.99
2018-10-05T05:34:33.428Z,99.99
2018-10-05T05:35:12.348Z,99.99
2018-10-05T05:36:12.270Z,99.99
2018-10-05T05:37:12.178Z,99.99
2018-10-05T05:38:12.111Z,99.99
2018-10-05T05:39:12.037Z,99.43
2018-10-05T05:40:32.924Z,98.49
2018-10-05T05:41:11.853Z,97.35
2018-10-05T05:42:11.778Z,96.31
2018-10-05T05:43:11.687Z,94.70
2018-10-05T05:44:11.699Z,92.99
2018-10-05T05:45:11.528Z,92.52
2018-10-05T05:46:32.424Z,92.61
2018-10-05T05:47:11.483Z,92.33
2018-10-05T05:48:11.282Z,91.86
2018-10-05T05:49:11.295Z,91.91
2018-10-05T05:50:11.119Z,92.29
2018-10-05T05:51:11.207Z,92.57
2018-10-05T05:52:31.927Z,93.70
2018-10-05T05:53:11.015Z,93.89
2018-10-05T05:54:10.853Z,94.56
2018-10-05T05:55:10.727Z,95.78
2018-10-05T05:56:10.625Z,97.20
2018-10-05T05:57:10.636Z,98.44
2018-10-05T05:58:32.265Z,98.63
2018-10-05T05:59:10.554Z,99.57
2018-10-05T06:00:10.289Z,99.99
2018-10-05T06:01:10.406Z,99.99
2018-10-05T06:02:10.126Z,99.99
2018-10-05T06:03:10.163Z,99.99
2018-10-05T06:04:30.943Z,99.99
2018-10-05T06:05:09.971Z,99.99
2018-10-05T06:06:09.796Z,99.99
2018-10-05T06:07:09.711Z,99.99
2018-10-05T06:08:09.815Z,99.99
2018-10-05T06:09:09.548Z,99.99
2018-10-05T06:10:30.588Z,99.99
2018-10-05T06:11:09.386Z,99.99
2018-10-05T06:12:09.302Z,99.99
2018-10-05T06:13:09.412Z,99.99
2018-10-05T06:14:09.139Z,99.99
2018-10-05T06:15:09.224Z,99.99
2018-10-05T06:16:30.017Z,99.99
2018-10-05T06:17:09.035Z,99.99
2018-10-05T06:18:08.813Z,99.99
2018-10-05T06:19:08.843Z,99.99
2018-10-05T06:20:08.648Z,99.99
2018-10-05T06:21:08.751Z,99.99
2018-10-05T06:22:29.629Z,99.99
2018-10-05T06:23:08.560Z,99.99
2018-10-05T06:24:08.317Z,99.99
2018-10-05T06:25:08.270Z,99.99
2018-10-05T06:26:08.156Z,99.99
2018-10-05T06:27:08.177Z,99.99
2018-10-05T06:28:28.972Z,99.99
2018-10-05T06:29:08.093Z,99.99
2018-10-05T06:30:07.820Z,99.99
2018-10-05T06:31:07.944Z,99.99
2018-10-05T06:32:07.660Z,99.99
2018-10-05T06:33:07.621Z,99.99
2018-10-05T06:34:28.604Z,99.99
2018-10-05T06:35:07.415Z,99.99
2018-10-05T06:36:07.529Z,99.99
2018-10-05T06:37:07.246Z,99.99
2018-10-05T06:38:07.269Z,99.99
2018-10-05T06:39:07.155Z,99.99
2018-10-05T06:40:28.034Z,99.99
2018-10-05T06:41:06.925Z,99.99
2018-10-05T06:42:06.937Z,99.99
2018-10-05T06:43:06.753Z,99.99
2018-10-05T06:44:06.763Z,99.99
2018-10-05T06:45:06.592Z,99.99
2018-10-05T06:46:27.562Z,99.99
2018-10-05T06:47:06.427Z,99.99
2018-10-05T06:48:06.376Z,99.99
2018-10-05T06:49:06.269Z,99.99
2018-10-05T06:50:06.205Z,99.99
2018-10-05T06:51:06.106Z,99.99
2018-10-05T06:52:27.008Z,99.99
2018-10-05T06:53:05.993Z,99.99
2018-10-05T06:54:05.859Z,99.99
2018-10-05T06:55:05.784Z,99.99
2018-10-05T06:56:05.694Z,99.99
2018-10-05T06:57:05.619Z,99.99
2018-10-05T06:58:26.507Z,99.99
2018-10-05T06:59:05.472Z,99.99
2018-10-05T07:00:05.368Z,99.99
2018-10-05T07:01:05.297Z,99.99
2018-10-05T07:02:05.205Z,99.99
2018-10-05T07:03:05.130Z,99.99
2018-10-05T07:04:26.021Z,99.99
2018-10-05T07:05:04.971Z,99.99
2018-10-05T07:06:04.876Z,99.99
2018-10-05T07:07:04.816Z,99.99
2018-10-05T07:08:04.757Z,99.99
2018-10-05T07:09:04.647Z,99.99
2018-10-05T07:10:25.533Z,99.99
2018-10-05T07:11:04.481Z,99.99
2018-10-05T07:12:04.391Z,99.99
2018-10-05T07:13:04.321Z,99.99
2018-10-05T07:14:04.228Z,99.99
2018-10-05T07:15:04.156Z,99.99
2018-10-05T07:16:25.050Z,99.99
2018-10-05T07:17:04.040Z,99.99
2018-10-05T07:18:03.907Z,99.99
2018-10-05T07:19:03.830Z,99.99
2018-10-05T07:20:03.743Z,99.99
2018-10-05T07:21:03.665Z,99.99
2018-10-05T07:22:24.593Z,99.99
2018-10-05T07:23:03.510Z,99.99
2018-10-05T07:24:03.425Z,99.99
2018-10-05T07:25:03.342Z,99.99
2018-10-05T07:26:03.253Z,99.99
2018-10-05T07:27:03.183Z,99.99
2018-10-05T07:28:24.127Z,99.99
2018-10-05T07:29:03.023Z,99.99
2018-10-05T07:30:02.930Z,99.99
2018-10-05T07:31:02.860Z,99.99
2018-10-05T07:32:02.777Z,99.45
2018-10-05T07:33:02.717Z,99.74
2018-10-05T07:34:23.593Z,98.97
2018-10-05T07:35:02.545Z,99.55
2018-10-05T07:36:02.459Z,99.16
2018-10-05T07:37:02.486Z,99.22
2018-10-05T07:38:02.291Z,99.98
2018-10-05T07:39:02.221Z,99.99
2018-10-05T07:40:23.109Z,98.79
2018-10-05T07:41:02.060Z,99.27
2018-10-05T07:42:01.970Z,98.88
2018-10-05T07:43:01.906Z,98.03
2018-10-05T07:44:01.820Z,97.51
2018-10-05T07:45:01.741Z,96.17
2018-10-05T07:46:22.637Z,95.03
2018-10-05T07:47:01.587Z,94.89
2018-10-05T07:48:01.494Z,94.60
2018-10-05T07:49:01.423Z,91.84
2018-10-05T07:50:01.337Z,90.50
2018-10-05T07:51:01.261Z,90.70
2018-10-05T07:52:22.158Z,89.89
2018-10-05T07:53:01.104Z,89.40
2018-10-05T07:54:01.018Z,89.40
2018-10-05T07:55:00.949Z,88.64
2018-10-05T07:56:00.862Z,88.93
2018-10-05T07:57:00.786Z,88.40
2018-10-05T07:58:21.681Z,87.83
2018-10-05T07:59:00.628Z,87.07
2018-10-05T08:00:00.543Z,85.73
2018-10-05T08:01:00.476Z,85.06
2018-10-05T08:02:00.383Z,84.16
2018-10-05T08:03:00.312Z,84.72
2018-10-05T08:04:21.208Z,86.54
2018-10-05T08:05:00.161Z,85.49
2018-10-05T08:06:00.080Z,82.95
2018-10-05T08:07:00.001Z,83.72
2018-10-05T08:07:59.912Z,82.09
2018-10-05T08:08:59.841Z,81.66
2018-10-05T08:10:20.743Z,81.56
2018-10-05T08:11:00.685Z,81.09
2018-10-05T08:11:59.600Z,78.89
2018-10-05T08:12:59.531Z,78.13
2018-10-05T08:13:59.450Z,78.99
2018-10-05T08:14:59.372Z,80.07
2018-10-05T08:16:20.272Z,78.74
2018-10-05T08:16:59.216Z,78.45
2018-10-05T08:17:59.130Z,78.83
2018-10-05T08:18:59.063Z,78.64
2018-10-05T08:19:58.985Z,77.30
2018-10-05T08:20:58.951Z,77.25
2018-10-05T08:22:19.804Z,78.20
2018-10-05T08:22:58.755Z,77.34
2018-10-05T08:23:58.666Z,76.67
2018-10-05T08:24:58.597Z,76.20
2018-10-05T08:25:58.509Z,75.71
2018-10-05T08:26:58.449Z,75.56
2018-10-05T08:28:19.336Z,74.22
2018-10-05T08:28:58.282Z,74.13
2018-10-05T08:29:58.200Z,74.99
2018-10-05T08:30:58.144Z,74.99
2018-10-05T08:31:58.065Z,72.79
2018-10-05T08:32:57.977Z,73.55
2018-10-05T08:34:18.887Z,74.16
2018-10-05T08:34:57.822Z,73.40
2018-10-05T08:35:57.738Z,72.63
2018-10-05T08:36:57.666Z,71.87
2018-10-05T08:37:57.583Z,71.58
2018-10-05T08:38:57.516Z,71.39
2018-10-05T08:40:18.491Z,71.30
2018-10-05T08:40:57.361Z,71.30
2018-10-05T08:41:57.273Z,72.06
2018-10-05T08:42:57.209Z,72.77
2018-10-05T08:43:57.127Z,72.00
2018-10-05T08:44:57.052Z,71.71
2018-10-05T08:46:17.951Z,71.14
2018-10-05T08:46:56.898Z,71.04
2018-10-05T08:47:56.820Z,70.72
2018-10-05T08:48:56.745Z,71.62
2018-10-05T08:49:56.661Z,71.04
2018-10-05T08:50:56.593Z,70.85
2018-10-05T08:52:17.528Z,71.33
2018-10-05T08:52:56.440Z,71.42
2018-10-05T08:53:56.360Z,70.76
2018-10-05T08:54:56.291Z,69.89
2018-10-05T08:55:56.205Z,69.64
2018-10-05T08:56:56.136Z,68.74
2018-10-05T08:58:17.035Z,69.13
2018-10-05T08:58:55.984Z,68.97
2018-10-05T08:59:55.927Z,69.26
2018-10-05T09:00:55.828Z,69.83
2018-10-05T09:01:55.754Z,70.50
2018-10-05T09:02:55.684Z,69.35
2018-10-05T09:04:16.581Z,69.35
2018-10-05T09:04:55.532Z,70.41
2018-10-05T09:05:55.528Z,70.60
2018-10-05T09:06:55.377Z,69.83
2018-10-05T09:07:55.293Z,69.83
2018-10-05T09:08:55.222Z,69.83
2018-10-05T09:10:16.129Z,70.98
2018-10-05T09:10:55.078Z,70.70
2018-10-05T09:11:54.991Z,70.03
2018-10-05T09:12:54.921Z,69.96
2018-10-05T09:13:54.841Z,68.52
2018-10-05T09:14:54.772Z,68.91
2018-10-05T09:16:15.667Z,67.85
2018-10-05T09:16:54.621Z,68.72
2018-10-05T09:17:54.539Z,69.01
2018-10-05T09:18:54.466Z,69.01
2018-10-05T09:19:54.386Z,68.81
2018-10-05T09:20:54.321Z,69.01
2018-10-05T09:22:15.220Z,69.29
2018-10-05T09:22:54.173Z,69.04
2018-10-05T09:23:54.088Z,68.27
2018-10-05T09:24:54.021Z,68.27
2018-10-05T09:25:53.933Z,68.85
2018-10-05T09:26:53.874Z,68.30
2018-10-05T09:28:14.764Z,67.83
2018-10-05T09:28:53.723Z,67.44
2018-10-05T09:29:53.634Z,67.63
2018-10-05T09:30:53.570Z,66.86
2018-10-05T09:31:53.485Z,66.19
2018-10-05T09:32:53.488Z,66.96
2018-10-05T09:34:14.319Z,66.96
2018-10-05T09:34:53.299Z,66.39
2018-10-05T09:35:53.185Z,66.71
2018-10-05T09:36:53.210Z,66.90
2018-10-05T09:37:53.103Z,66.90
2018-10-05T09:38:53.017Z,67.19
2018-10-05T09:40:13.871Z,66.80
2018-10-05T09:40:52.930Z,65.40
2018-10-05T09:41:52.738Z,64.40
2018-10-05T09:42:52.740Z,66.42
2018-10-05T09:43:52.584Z,67.03
2018-10-05T09:44:52.567Z,66.74
2018-10-05T09:46:13.421Z,65.49
2018-10-05T09:46:52.460Z,65.40
2018-10-05T09:47:52.293Z,65.43
2018-10-05T09:48:52.274Z,65.33
2018-10-05T09:49:52.143Z,64.47
2018-10-05T09:50:52.182Z,64.66
2018-10-05T09:52:13.082Z,64.66
2018-10-05T09:52:51.997Z,63.51
2018-10-05T09:53:51.848Z,62.61
2018-10-05T09:54:51.800Z,62.96
2018-10-05T09:55:51.695Z,64.12
2018-10-05T09:56:51.711Z,63.45
2018-10-05T09:58:12.530Z,64.59
2018-10-05T09:58:51.475Z,64.69
2018-10-05T09:59:51.505Z,65.75
2018-10-05T10:00:51.431Z,64.53
2018-10-05T10:01:51.250Z,64.15
2018-10-05T10:02:51.240Z,64.72
2018-10-05T10:04:12.089Z,63.67
2018-10-05T10:04:51.152Z,64.25
2018-10-05T10:05:50.960Z,64.53
2018-10-05T10:06:50.960Z,64.15
2018-10-05T10:07:50.833Z,64.47
2018-10-05T10:08:50.769Z,62.74
2018-10-05T10:10:11.642Z,61.97
2018-10-05T10:10:50.681Z,61.87
2018-10-05T10:11:50.512Z,62.45
2018-10-05T10:12:50.489Z,62.64
2018-10-05T10:13:50.419Z,62.26
2018-10-05T10:14:50.401Z,63.02
2018-10-05T10:16:11.204Z,62.64
2018-10-05T10:16:50.209Z,61.97
2018-10-05T10:17:50.080Z,62.45
2018-10-05T10:18:50.019Z,63.02
2018-10-05T10:19:49.928Z,63.12
2018-10-05T10:20:49.851Z,63.22
2018-10-05T10:22:10.761Z,62.74
2018-10-05T10:22:49.880Z,61.87
2018-10-05T10:23:49.629Z,62.26
2018-10-05T10:24:49.611Z,62.35
2018-10-05T10:25:49.486Z,62.74
2018-10-05T10:26:49.522Z,62.29
2018-10-05T10:28:10.430Z,61.43
2018-10-05T10:28:49.474Z,60.63
2018-10-05T10:29:49.190Z,61.30
2018-10-05T10:30:49.137Z,61.20
2018-10-05T10:31:49.046Z,62.26
2018-10-05T10:32:49.048Z,62.55
2018-10-05T10:34:09.880Z,62.35
2018-10-05T10:34:49.899Z,63.41
2018-10-05T10:35:48.753Z,62.58
2018-10-05T10:36:48.848Z,61.81
2018-10-05T10:37:48.604Z,62.00
2018-10-05T10:38:48.578Z,62.99
2018-10-05T10:40:09.442Z,61.14
2018-10-05T10:40:48.491Z,60.85
2018-10-05T10:41:48.319Z,60.94
2018-10-05T10:42:48.297Z,60.94
2018-10-05T10:43:48.166Z,62.00
2018-10-05T10:44:48.212Z,60.94
2018-10-05T10:46:09.003Z,60.08
2018-10-05T10:46:48.021Z,59.53
2018-10-05T10:47:47.877Z,58.95
2018-10-05T10:48:47.825Z,59.22
2018-10-05T10:49:47.729Z,60.01
2018-10-05T10:50:47.736Z,60.30
2018-10-05T10:52:08.567Z,60.01
2018-10-05T10:52:47.547Z,59.72
2018-10-05T10:53:47.439Z,60.59
2018-10-05T10:54:47.459Z,60.11
2018-10-05T10:55:47.293Z,59.31
2018-10-05T10:56:47.265Z,59.79
2018-10-05T10:58:08.129Z,60.46
2018-10-05T10:58:47.183Z,60.17
2018-10-05T10:59:47.002Z,60.08
2018-10-05T11:00:47.034Z,60.21
2018-10-05T11:01:46.866Z,60.01
2018-10-05T11:02:46.896Z,59.72
2018-10-05T11:04:07.784Z,58.86
2018-10-05T11:04:46.708Z,59.44
2018-10-05T11:05:46.565Z,59.34
2018-10-05T11:06:46.510Z,59.53
2018-10-05T11:07:46.422Z,59.53
2018-10-05T11:08:46.422Z,60.30
2018-10-05T11:10:07.257Z,59.92
2018-10-05T11:10:46.236Z,60.11
2018-10-05T11:11:46.131Z,61.49
2018-10-05T11:12:46.144Z,61.00
2018-10-05T11:13:45.983Z,59.75
2018-10-05T11:14:45.951Z,59.08
2018-10-05T11:16:06.823Z,59.17
2018-10-05T11:16:45.862Z,58.70
2018-10-05T11:17:45.690Z,57.73
2018-10-05T11:18:45.669Z,57.73
2018-10-05T11:19:45.549Z,58.44
2018-10-05T11:20:45.583Z,57.76
2018-10-05T11:22:06.385Z,57.67
2018-10-05T11:22:45.389Z,58.05
2018-10-05T11:23:45.262Z,57.67
2018-10-05T11:24:45.300Z,59.49
2018-10-05T11:25:45.115Z,57.95
2018-10-05T11:26:45.107Z,58.92
2018-10-05T11:28:05.953Z,57.76
2018-10-05T11:28:44.917Z,57.57
2018-10-05T11:29:44.890Z,58.53
2018-10-05T11:30:44.830Z,58.15
2018-10-05T11:31:44.690Z,57.67
2018-10-05T11:32:44.615Z,56.92
2018-10-05T11:34:05.520Z,56.03
2018-10-05T11:34:44.546Z,55.67
2018-10-05T11:35:44.396Z,54.97
2018-10-05T11:36:44.363Z,55.67
2018-10-05T11:37:44.250Z,55.45
2018-10-05T11:38:44.267Z,55.09
2018-10-05T11:40:05.090Z,56.22
2018-10-05T11:40:44.113Z,57.09
2018-10-05T11:41:43.958Z,56.60
2018-10-05T11:42:43.987Z,56.80
2018-10-05T11:43:43.821Z,55.96
2018-10-05T11:44:43.797Z,56.82
2018-10-05T11:46:04.660Z,56.12
2018-10-05T11:46:43.711Z,56.35
2018-10-05T11:47:43.526Z,59.91
2018-10-05T11:48:43.518Z,57.60
2018-10-05T11:49:43.396Z,56.05
2018-10-05T11:50:43.424Z,55.96
2018-10-05T11:52:04.227Z,56.05
2018-10-05T11:52:43.239Z,56.03
2018-10-05T11:53:43.111Z,56.63
2018-10-05T11:54:43.145Z,56.35
2018-10-05T11:55:42.955Z,56.05
2018-10-05T11:56:42.953Z,56.35
2018-10-05T11:58:03.800Z,56.15
2018-10-05T11:58:42.760Z,56.63
2018-10-05T11:59:42.683Z,55.57
2018-10-05T12:00:42.675Z,56.63
2018-10-05T12:01:42.525Z,56.05
2018-10-05T12:02:42.480Z,56.05
2018-10-05T12:04:03.362Z,55.48
2018-10-05T12:04:42.392Z,55.67
2018-10-05T12:05:42.240Z,55.96
2018-10-05T12:06:42.200Z,54.71
2018-10-05T12:07:42.094Z,54.61
2018-10-05T12:08:42.116Z,54.64
2018-10-05T12:10:02.935Z,54.74
2018-10-05T12:10:41.923Z,55.22
2018-10-05T12:11:41.810Z,54.16
2018-10-05T12:12:41.832Z,52.93
2018-10-05T12:13:41.694Z,53.58
2018-10-05T12:14:41.642Z,53.29
2018-10-05T12:16:02.506Z,53.67
2018-10-05T12:16:41.554Z,53.29
2018-10-05T12:17:41.379Z,52.93
2018-10-05T12:18:41.365Z,53.29
2018-10-05T12:19:41.238Z,53.61
2018-10-05T12:20:41.281Z,53.39
2018-10-05T12:22:02.079Z,53.87
2018-10-05T12:22:41.080Z,54.16
2018-10-05T12:23:40.957Z,53.19
2018-10-05T12:24:40.992Z,53.00
2018-10-05T12:25:40.803Z,54.16
2018-10-05T12:26:40.849Z,53.87
2018-10-05T12:28:01.678Z,53.09
2018-10-05T12:28:40.709Z,52.81
2018-10-05T12:29:40.525Z,53.67
2018-10-05T12:30:40.523Z,53.39
2018-10-05T12:31:40.389Z,52.61
2018-10-05T12:32:40.333Z,53.99
2018-10-05T12:34:01.220Z,52.06
2018-10-05T12:34:40.243Z,51.75
2018-10-05T12:35:40.103Z,51.97
2018-10-05T12:36:40.046Z,52.35
2018-10-05T12:37:39.949Z,51.87
2018-10-05T12:38:39.958Z,53.51
2018-10-05T12:40:00.801Z,53.44
2018-10-05T12:40:39.766Z,51.70
2018-10-05T12:41:39.667Z,52.09
2018-10-05T12:42:39.684Z,51.32
2018-10-05T12:43:39.526Z,49.87
2018-10-05T12:44:39.485Z,49.84
2018-10-05T12:46:00.367Z,51.10
2018-10-05T12:46:39.395Z,51.97
2018-10-05T12:47:39.242Z,51.03
2018-10-05T12:48:39.206Z,52.19
2018-10-05T12:49:39.099Z,49.65
2018-10-05T12:50:39.120Z,50.42
2018-10-05T12:51:59.954Z,50.54